createdAt,value
2023-05-22T00:02:14.152Z,16.41
2023-05-22T00:04:41.644Z,16.57
2023-05-22T00:07:09.208Z,16.52
2023-05-22T00:09:36.719Z,16.66
2023-05-22T00:12:04.246Z,16.79
2023-05-22T00:14:31.633Z,16.79
2023-05-22T00:17:00.299Z,16.78
2023-05-22T00:19:30.626Z,16.74
2023-05-22T00:21:58.120Z,16.74
2023-05-22T00:24:25.580Z,16.68
2023-05-22T00:26:52.975Z,16.31
2023-05-22T00:29:20.508Z,16.20
2023-05-22T00:31:48.232Z,16.07
2023-05-22T00:34:15.696Z,16.21
2023-05-22T00:36:43.124Z,16.35
2023-05-22T00:39:10.524Z,16.25
2023-05-22T00:41:38.661Z,16.15
2023-05-22T00:44:06.273Z,16.12
2023-05-22T00:46:34.082Z,16.11
2023-05-22T00:49:01.512Z,15.88
2023-05-22T00:51:29.410Z,15.81
2023-05-22T00:53:57.293Z,15.92
2023-05-22T00:56:25.077Z,15.89
2023-05-22T00:58:52.732Z,15.97
2023-05-22T01:01:20.588Z,15.98
2023-05-22T01:03:48.377Z,16.07
2023-05-22T01:06:18.390Z,15.87
2023-05-22T01:08:45.888Z,15.44
2023-05-22T01:11:26.661Z,15.04
2023-05-22T01:14:51.762Z,14.75
2023-05-22T01:17:38.151Z,14.80
2023-05-22T01:20:11.206Z,15.07
2023-05-22T01:22:58.706Z,15.24
2023-05-22T01:25:49.562Z,15.20
2023-05-22T01:28:17.008Z,15.31
2023-05-22T01:31:29.105Z,15.37
2023-05-22T01:33:58.919Z,15.30
2023-05-22T01:36:31.863Z,15.28
2023-05-22T01:39:01.635Z,15.00
2023-05-22T01:41:30.044Z,15.06
2023-05-22T01:43:57.489Z,14.95
2023-05-22T01:46:30.394Z,15.12
2023-05-22T01:48:58.567Z,15.11
2023-05-22T01:51:45.196Z,14.62
2023-05-22T01:54:43.487Z,14.88
2023-05-22T01:57:37.885Z,14.75
2023-05-22T02:00:11.008Z,14.96
2023-05-22T02:02:43.406Z,15.01
2023-05-22T02:05:12.661Z,15.03
2023-05-22T02:07:42.203Z,14.89
2023-05-22T02:10:11.549Z,14.78
2023-05-22T02:12:39.089Z,14.76
2023-05-22T02:15:08.732Z,14.97
2023-05-22T02:17:42.742Z,14.62
2023-05-22T02:20:15.812Z,14.39
2023-05-22T02:22:47.607Z,14.43
2023-05-22T02:25:17.274Z,14.43
2023-05-22T02:27:46.957Z,14.57
2023-05-22T02:30:15.479Z,14.60
2023-05-22T02:32:43.296Z,14.54
2023-05-22T02:35:11.055Z,14.47
2023-05-22T02:37:38.690Z,14.35
2023-05-22T02:40:06.758Z,14.32
2023-05-22T02:42:34.809Z,14.41
2023-05-22T02:45:02.808Z,14.27
2023-05-22T02:47:33.206Z,14.15
2023-05-22T02:50:00.655Z,14.21
2023-05-22T02:52:28.548Z,14.26
2023-05-22T02:54:56.022Z,14.28
2023-05-22T02:57:23.596Z,14.35
2023-05-22T02:59:51.341Z,14.33
2023-05-22T03:02:19.795Z,14.28
2023-05-22T03:04:47.341Z,14.28
2023-05-22T03:07:14.989Z,13.99
2023-05-22T03:09:42.547Z,14.07
2023-05-22T03:12:10.264Z,13.97
2023-05-22T03:14:37.770Z,13.96
2023-05-22T03:17:05.402Z,14.05
2023-05-22T03:19:32.858Z,13.99
2023-05-22T03:22:00.345Z,14.12
2023-05-22T03:24:27.984Z,14.25
2023-05-22T03:26:55.457Z,14.31
2023-05-22T03:29:23.026Z,14.29
2023-05-22T03:31:50.510Z,14.34
2023-05-22T03:34:17.967Z,14.33
2023-05-22T03:36:46.128Z,14.30
2023-05-22T03:39:13.581Z,14.10
2023-05-22T03:41:41.373Z,14.10
2023-05-22T03:44:08.791Z,14.16
2023-05-22T03:46:36.232Z,14.09
2023-05-22T03:49:03.866Z,14.07
2023-05-22T03:51:31.842Z,14.14
2023-05-22T03:53:59.675Z,14.15
2023-05-22T03:56:27.215Z,14.04
2023-05-22T03:58:54.682Z,14.15
2023-05-22T04:01:22.262Z,14.20
2023-05-22T04:03:49.694Z,14.20
2023-05-22T04:06:17.710Z,14.21
2023-05-22T04:08:45.260Z,14.28
2023-05-22T04:11:15.768Z,14.42
2023-05-22T04:13:46.067Z,14.46
2023-05-22T04:16:13.783Z,14.49
2023-05-22T04:18:41.389Z,14.50
2023-05-22T04:21:09.903Z,14.53
2023-05-22T04:23:38.782Z,14.58
2023-05-22T04:26:08.883Z,14.57
2023-05-22T04:28:36.417Z,14.41
2023-05-22T04:31:06.576Z,14.52
2023-05-22T04:33:38.708Z,14.67
2023-05-22T04:36:07.161Z,14.44
2023-05-22T04:38:36.778Z,14.60
2023-05-22T04:41:04.488Z,14.70
2023-05-22T04:43:32.495Z,14.63
2023-05-22T04:46:00.885Z,14.50
2023-05-22T04:48:28.417Z,14.41
2023-05-22T04:50:58.870Z,14.38
2023-05-22T04:53:27.704Z,14.53
2023-05-22T04:55:55.356Z,14.47
2023-05-22T04:58:29.589Z,14.46
2023-05-22T05:00:57.965Z,14.55
2023-05-22T05:03:25.813Z,14.62
2023-05-22T05:05:53.344Z,14.64
2023-05-22T05:08:20.980Z,14.67
2023-05-22T05:10:48.508Z,14.71
2023-05-22T05:13:15.974Z,14.86
2023-05-22T05:15:43.461Z,14.90
2023-05-22T05:18:11.600Z,14.93
2023-05-22T05:20:39.194Z,14.97
2023-05-22T05:23:06.917Z,15.12
2023-05-22T05:25:36.081Z,15.19
2023-05-22T05:28:03.865Z,15.27
2023-05-22T05:30:32.145Z,15.44
2023-05-22T05:32:59.592Z,15.62
2023-05-22T05:35:27.126Z,15.72
2023-05-22T05:37:54.585Z,15.82
2023-05-22T05:40:22.049Z,15.89
2023-05-22T05:42:49.467Z,16.05
2023-05-22T05:45:17.159Z,16.13
2023-05-22T05:47:56.305Z,16.19
2023-05-22T05:50:23.956Z,16.35
2023-05-22T05:52:51.420Z,16.45
2023-05-22T05:55:19.266Z,16.56
2023-05-22T05:57:46.757Z,16.76
2023-05-22T06:00:14.551Z,16.69
2023-05-22T06:02:42.305Z,16.71
2023-05-22T06:05:10.769Z,16.86
2023-05-22T06:07:39.894Z,16.86
2023-05-22T06:10:11.537Z,16.89
2023-05-22T06:12:39.232Z,16.87
2023-05-22T06:15:07.651Z,16.87
2023-05-22T06:17:35.784Z,16.92
2023-05-22T06:20:05.408Z,17.10
2023-05-22T06:22:32.864Z,17.18
2023-05-22T06:25:00.343Z,17.15
2023-05-22T06:27:27.935Z,17.45
2023-05-22T06:29:56.524Z,17.54
2023-05-22T06:32:24.195Z,17.76
2023-05-22T06:34:51.794Z,17.87
2023-05-22T06:37:19.216Z,18.04
2023-05-22T06:39:46.704Z,18.22
2023-05-22T06:42:14.156Z,18.48
2023-05-22T06:44:41.563Z,18.76
2023-05-22T06:47:09.039Z,18.80
2023-05-22T06:49:36.513Z,18.78
2023-05-22T06:52:05.333Z,18.98
2023-05-22T06:54:32.977Z,19.24
2023-05-22T06:57:00.430Z,19.52
2023-05-22T06:59:27.819Z,19.64
2023-05-22T07:01:55.284Z,19.83
2023-05-22T07:04:22.820Z,19.75
2023-05-22T07:06:50.289Z,20.22
2023-05-22T07:09:18.899Z,19.88
2023-05-22T07:11:46.904Z,20.01
2023-05-22T07:14:14.511Z,20.35
2023-05-22T07:16:42.220Z,20.44
2023-05-22T07:19:10.503Z,20.51
2023-05-22T07:21:38.066Z,20.35
2023-05-22T07:24:08.705Z,20.37
2023-05-22T07:26:37.169Z,20.62
2023-05-22T07:29:05.260Z,20.71
2023-05-22T07:31:34.444Z,21.02
2023-05-22T07:34:01.999Z,20.97
2023-05-22T07:36:29.443Z,21.21
2023-05-22T07:38:56.925Z,21.17
2023-05-22T07:41:25.742Z,21.12
2023-05-22T07:43:53.224Z,21.47
2023-05-22T07:46:20.697Z,21.63
2023-05-22T07:48:48.234Z,21.68
2023-05-22T07:51:15.724Z,21.83
2023-05-22T07:53:43.208Z,22.33
2023-05-22T07:56:11.372Z,22.09
2023-05-22T07:58:40.142Z,21.80
2023-05-22T08:01:09.527Z,22.11
2023-05-22T08:03:37.297Z,22.23
2023-05-22T08:06:05.069Z,22.07
2023-05-22T08:08:33.843Z,21.87
2023-05-22T08:11:04.026Z,22.45
2023-05-22T08:13:32.405Z,22.84
2023-05-22T08:16:01.142Z,22.46
2023-05-22T08:18:29.953Z,21.96
2023-05-22T08:20:57.941Z,22.39
2023-05-22T08:23:25.506Z,22.37
2023-05-22T08:25:52.992Z,22.39
2023-05-22T08:28:21.096Z,22.85
2023-05-22T08:30:48.732Z,23.23
2023-05-22T08:33:16.721Z,23.17
2023-05-22T08:35:44.392Z,23.44
2023-05-22T08:38:12.004Z,23.33
2023-05-22T08:40:45.902Z,23.96
2023-05-22T08:43:13.924Z,22.92
2023-05-22T08:45:42.675Z,22.98
2023-05-22T08:51:02.837Z,23.33
2023-05-22T08:53:34.689Z,24.18
2023-05-22T08:56:04.157Z,24.01
2023-05-22T08:58:35.375Z,23.87
2023-05-22T09:01:04.140Z,23.31
2023-05-22T09:03:35.233Z,23.81
2023-05-22T09:06:03.166Z,23.37
2023-05-22T09:08:30.588Z,23.78
2023-05-22T09:10:57.645Z,23.87
2023-05-22T09:13:30.598Z,23.77
2023-05-22T09:16:14.081Z,24.51
2023-05-22T09:18:45.036Z,24.50
2023-05-22T09:21:25.688Z,24.21
2023-05-22T09:23:59.745Z,24.69
2023-05-22T09:26:30.442Z,24.97
2023-05-22T09:29:00.159Z,24.98
2023-05-22T09:31:29.556Z,24.95
2023-05-22T09:33:57.219Z,25.57
2023-05-22T09:36:33.288Z,25.81
2023-05-22T09:39:01.975Z,25.40
2023-05-22T09:41:34.178Z,25.13
2023-05-22T09:44:02.182Z,25.39
2023-05-22T09:46:30.043Z,25.47
2023-05-22T09:48:57.418Z,25.41
2023-05-22T09:51:27.436Z,25.22
2023-05-22T09:54:03.624Z,26.03
2023-05-22T09:56:39.725Z,25.58
2023-05-22T09:59:09.700Z,26.35
2023-05-22T10:01:41.286Z,26.29
2023-05-22T10:04:14.440Z,27.06
2023-05-22T10:06:43.228Z,26.04
2023-05-22T10:09:19.187Z,25.67
2023-05-22T10:11:47.625Z,26.31
2023-05-22T10:14:15.952Z,26.60
2023-05-22T10:16:45.103Z,26.89
2023-05-22T10:19:13.221Z,26.64
2023-05-22T10:21:42.331Z,26.35
2023-05-22T10:24:11.258Z,26.85
2023-05-22T10:26:39.406Z,27.07
2023-05-22T10:29:18.998Z,26.91
2023-05-22T10:32:08.580Z,27.51
2023-05-22T10:34:41.872Z,26.82
2023-05-22T10:37:27.037Z,26.54
2023-05-22T10:40:01.276Z,27.08
2023-05-22T10:42:32.609Z,27.40
2023-05-22T10:45:02.168Z,26.70
2023-05-22T10:47:29.766Z,28.07
2023-05-22T10:50:10.108Z,28.34
2023-05-22T10:52:38.813Z,29.36
2023-05-22T10:55:12.281Z,28.82
2023-05-22T10:57:40.251Z,28.50
2023-05-22T11:00:13.394Z,28.62
2023-05-22T11:02:44.013Z,28.41
2023-05-22T11:05:23.893Z,29.08
2023-05-22T11:07:51.889Z,28.26
2023-05-22T11:11:01.688Z,28.72
2023-05-22T11:13:29.626Z,28.86
2023-05-22T11:15:58.275Z,29.21
2023-05-22T11:18:29.851Z,28.71
2023-05-22T11:21:00.900Z,28.80
2023-05-22T11:23:28.425Z,28.69
2023-05-22T11:25:55.845Z,29.40
2023-05-22T11:28:24.430Z,29.55
2023-05-22T11:30:52.756Z,29.68
2023-05-22T11:33:20.229Z,29.58
2023-05-22T11:35:48.215Z,29.30
2023-05-22T11:38:15.826Z,30.30
2023-05-22T11:40:43.237Z,29.86
2023-05-22T11:43:10.847Z,29.01
2023-05-22T11:45:38.761Z,29.61
2023-05-22T11:48:08.087Z,29.94
2023-05-22T11:53:08.332Z,29.75
2023-05-22T11:55:35.998Z,31.12
2023-05-22T11:58:03.539Z,30.40
2023-05-22T12:00:31.977Z,30.61
2023-05-22T12:02:59.762Z,30.25
2023-05-22T12:05:27.359Z,30.69
2023-05-22T12:07:55.003Z,30.79
2023-05-22T12:10:22.526Z,30.57
2023-05-22T12:12:49.965Z,30.66
2023-05-22T12:15:21.136Z,31.11
2023-05-22T12:17:48.918Z,31.28
2023-05-22T12:20:16.617Z,31.91
2023-05-22T12:22:44.479Z,31.09
2023-05-22T12:25:20.382Z,30.92
2023-05-22T12:27:48.514Z,31.06
2023-05-22T12:30:17.127Z,30.22
2023-05-22T12:32:53.615Z,30.50
2023-05-22T12:35:21.184Z,30.97
2023-05-22T12:37:52.468Z,30.23
2023-05-22T12:40:20.004Z,30.67
2023-05-22T12:42:48.983Z,30.71
2023-05-22T12:45:18.080Z,31.20
2023-05-22T12:47:45.991Z,30.88
2023-05-22T12:50:13.619Z,30.27
2023-05-22T12:52:41.086Z,29.71
2023-05-22T12:55:10.189Z,30.18
2023-05-22T12:57:37.707Z,29.16
2023-05-22T13:00:06.084Z,28.44
2023-05-22T13:02:33.885Z,29.62
2023-05-22T13:05:01.406Z,29.12
2023-05-22T13:07:28.858Z,29.42
2023-05-22T13:09:55.960Z,29.14
2023-05-22T13:12:23.647Z,28.79
2023-05-22T13:14:51.220Z,28.18
2023-05-22T13:17:18.257Z,27.60
2023-05-22T13:19:45.734Z,27.33
2023-05-22T13:22:12.845Z,28.08
2023-05-22T13:24:40.268Z,27.12
2023-05-22T13:27:07.751Z,27.03
2023-05-22T13:29:35.293Z,27.26
2023-05-22T13:32:02.933Z,26.57
2023-05-22T13:34:30.515Z,26.19
2023-05-22T13:36:58.163Z,25.56
2023-05-22T13:39:25.723Z,25.02
2023-05-22T13:41:53.697Z,25.31
2023-05-22T13:44:21.436Z,24.57
2023-05-22T13:46:49.074Z,24.21
2023-05-22T13:49:16.523Z,23.63
2023-05-22T13:51:43.724Z,23.65
2023-05-22T13:54:11.355Z,23.31
2023-05-22T13:56:38.823Z,23.59
2023-05-22T13:59:09.050Z,23.38
2023-05-22T14:01:36.908Z,23.33
2023-05-22T14:04:04.950Z,23.51
2023-05-22T14:06:32.585Z,23.64
2023-05-22T14:09:00.026Z,23.03
2023-05-22T14:11:28.005Z,22.72
2023-05-22T14:13:55.470Z,22.46
2023-05-22T14:16:23.035Z,22.65
2023-05-22T14:18:50.186Z,22.34
2023-05-22T14:21:19.022Z,22.19
2023-05-22T14:23:46.553Z,22.32
2023-05-22T14:26:14.776Z,22.28
2023-05-22T14:28:43.141Z,22.67
2023-05-22T14:31:10.573Z,22.35
2023-05-22T14:33:38.133Z,22.24
2023-05-22T14:36:05.795Z,22.13
2023-05-22T14:38:33.903Z,22.07
2023-05-22T14:41:02.082Z,21.91
2023-05-22T14:43:29.613Z,22.09
2023-05-22T14:45:58.233Z,22.08
2023-05-22T14:48:26.584Z,21.95
2023-05-22T14:50:54.255Z,22.00
2023-05-22T14:53:21.813Z,21.99
2023-05-22T14:55:49.341Z,21.91
2023-05-22T14:58:16.808Z,21.98
2023-05-22T15:00:45.616Z,22.00
2023-05-22T15:03:13.711Z,22.02
2023-05-22T15:05:41.377Z,22.07
2023-05-22T15:08:09.053Z,21.92
2023-05-22T15:10:36.959Z,21.75
2023-05-22T15:13:04.407Z,21.69
2023-05-22T15:15:31.892Z,21.71
2023-05-22T15:18:02.721Z,21.60
2023-05-22T15:20:30.802Z,21.65
2023-05-22T15:22:59.412Z,21.68
2023-05-22T15:25:31.344Z,21.59
2023-05-22T15:28:01.245Z,21.58
2023-05-22T15:30:28.798Z,21.52
2023-05-22T15:32:57.431Z,21.53
2023-05-22T15:35:25.556Z,21.34
2023-05-22T15:37:53.073Z,21.29
2023-05-22T15:40:22.753Z,21.17
2023-05-22T15:42:51.341Z,21.14
2023-05-22T15:45:19.011Z,21.08
2023-05-22T15:47:47.334Z,20.94
2023-05-22T15:50:15.275Z,20.73
2023-05-22T15:52:42.829Z,20.78
2023-05-22T15:55:10.617Z,20.72
2023-05-22T15:57:38.487Z,20.82
2023-05-22T16:00:06.683Z,20.65
2023-05-22T16:02:34.764Z,20.69
2023-05-22T16:05:02.571Z,20.70
2023-05-22T16:07:30.375Z,20.61
2023-05-22T16:09:57.902Z,20.66
2023-05-22T16:12:25.354Z,20.62
2023-05-22T16:14:59.448Z,20.61
2023-05-22T16:17:28.140Z,20.54
2023-05-22T16:19:55.601Z,20.34
2023-05-22T16:22:24.757Z,20.26
2023-05-22T16:24:55.744Z,20.25
2023-05-22T16:27:23.231Z,19.99
2023-05-22T16:29:50.848Z,20.16
2023-05-22T16:32:18.244Z,20.05
2023-05-22T16:34:45.763Z,20.01
2023-05-22T16:37:13.150Z,20.02
2023-05-22T16:39:41.571Z,19.94
2023-05-22T16:42:19.276Z,19.83
2023-05-22T16:44:49.804Z,19.94
2023-05-22T16:47:17.521Z,19.70
2023-05-22T16:49:45.032Z,19.77
2023-05-22T16:52:12.570Z,19.78
2023-05-22T16:54:41.074Z,19.73
2023-05-22T16:57:10.551Z,19.33
2023-05-22T16:59:38.297Z,19.23
2023-05-22T17:02:05.922Z,19.52
2023-05-22T17:04:33.585Z,19.72
2023-05-22T17:07:01.025Z,20.09
2023-05-22T17:09:28.476Z,20.22
2023-05-22T17:11:56.174Z,20.35
2023-05-22T17:14:25.588Z,20.49
2023-05-22T17:16:54.472Z,20.68
2023-05-22T17:19:22.174Z,20.94
2023-05-22T17:21:49.697Z,21.08
2023-05-22T17:24:20.293Z,21.21
2023-05-22T17:26:49.085Z,21.16
2023-05-22T17:29:16.789Z,21.30
2023-05-22T17:31:44.424Z,21.39
2023-05-22T17:34:11.936Z,21.60
2023-05-22T17:36:41.063Z,21.74
2023-05-22T17:39:10.130Z,22.01
2023-05-22T17:41:38.328Z,21.84
2023-05-22T17:44:06.045Z,21.88
2023-05-22T17:46:33.673Z,21.82
2023-05-22T17:49:01.400Z,21.71
2023-05-22T17:51:29.075Z,21.64
2023-05-22T17:53:59.049Z,21.68
2023-05-22T17:56:26.860Z,21.49
2023-05-22T17:58:54.515Z,21.44
2023-05-22T18:01:24.577Z,21.42
2023-05-22T18:03:52.295Z,21.47
2023-05-22T18:06:21.798Z,21.40
2023-05-22T18:08:51.590Z,21.16
2023-05-22T18:11:19.047Z,20.94
2023-05-22T18:13:46.600Z,21.03
2023-05-22T18:16:14.464Z,20.92
2023-05-22T18:18:41.926Z,20.92
2023-05-22T18:21:09.532Z,21.03
2023-05-22T18:23:37.027Z,21.07
2023-05-22T18:26:04.688Z,21.03
2023-05-22T18:28:32.180Z,21.02
2023-05-22T18:31:01.440Z,20.92
2023-05-22T18:33:29.683Z,20.81
2023-05-22T18:35:57.832Z,20.78
2023-05-22T18:38:25.965Z,20.74
2023-05-22T18:40:54.230Z,20.72
2023-05-22T18:43:27.839Z,20.70
2023-05-22T18:45:58.679Z,20.55
2023-05-22T18:51:31.361Z,20.61
2023-05-22T18:53:58.995Z,20.49
2023-05-22T19:09:26.676Z,20.20
2023-05-22T19:13:15.313Z,20.16
2023-05-22T19:15:43.386Z,20.07
2023-05-22T19:18:12.387Z,20.02
2023-05-22T19:28:46.558Z,19.83
2023-05-22T19:38:04.881Z,19.68
2023-05-22T19:46:34.287Z,19.47
2023-05-22T19:49:01.941Z,19.38
2023-05-22T19:51:29.488Z,19.30
2023-05-22T19:53:56.959Z,19.32
2023-05-22T19:56:24.421Z,19.21
2023-05-22T19:58:51.888Z,18.95
2023-05-22T20:01:19.389Z,18.77
2023-05-22T20:03:47.213Z,18.82
2023-05-22T20:06:14.913Z,18.84
2023-05-22T20:08:42.849Z,18.85
2023-05-22T20:11:10.309Z,18.89
2023-05-22T20:13:37.795Z,18.80
2023-05-22T20:16:11.847Z,18.76
2023-05-22T20:18:41.192Z,18.73
2023-05-22T20:21:09.445Z,18.73
2023-05-22T20:23:37.132Z,18.76
2023-05-22T20:26:05.226Z,18.72
2023-05-22T20:28:32.810Z,18.75
2023-05-22T20:31:00.339Z,18.79
2023-05-22T20:33:28.068Z,18.95
2023-05-22T20:35:55.695Z,18.88
2023-05-22T20:38:23.249Z,18.88
2023-05-22T20:40:52.026Z,18.88
2023-05-22T20:43:20.282Z,18.84
2023-05-22T20:45:47.692Z,18.84
2023-05-22T20:48:15.373Z,18.82
2023-05-22T20:50:43.069Z,18.83
2023-05-22T20:53:10.509Z,18.84
2023-05-22T20:55:38.198Z,18.74
2023-05-22T20:58:05.954Z,18.70
2023-05-22T21:00:35.060Z,18.65
2023-05-22T21:03:02.604Z,18.60
2023-05-22T21:05:30.157Z,18.61
2023-05-22T21:07:58.354Z,18.63
2023-05-22T21:10:25.873Z,18.59
2023-05-22T21:12:53.518Z,18.55
2023-05-22T21:15:21.418Z,18.52
2023-05-22T21:17:48.942Z,18.48
2023-05-22T21:20:16.513Z,18.48
2023-05-22T21:22:44.056Z,18.48
2023-05-22T21:25:11.505Z,18.44
2023-05-22T21:27:38.934Z,18.48
2023-05-22T21:30:06.994Z,18.45
2023-05-22T21:32:34.443Z,18.42
2023-05-22T21:35:01.980Z,18.42
2023-05-22T21:37:29.380Z,18.40
2023-05-22T21:39:56.814Z,18.39
2023-05-22T21:42:26.175Z,18.42
2023-05-22T21:44:53.697Z,18.39
2023-05-22T21:47:21.114Z,18.43
2023-05-22T21:49:48.600Z,18.38
2023-05-22T21:52:16.316Z,18.46
2023-05-22T21:54:43.741Z,18.54
2023-05-22T21:57:11.129Z,18.55
2023-05-22T21:59:39.330Z,18.49
2023-05-22T22:02:06.894Z,18.59
2023-05-22T22:04:34.397Z,18.56
2023-05-22T22:07:01.830Z,18.53
2023-05-22T22:09:29.338Z,18.60
2023-05-22T22:11:56.791Z,18.59
2023-05-22T22:14:24.381Z,18.53
2023-05-22T22:16:54.548Z,18.49
2023-05-22T22:19:26.002Z,18.40
2023-05-22T22:21:53.630Z,18.34
2023-05-22T22:24:21.652Z,18.34
2023-05-22T22:26:49.489Z,18.28
2023-05-22T22:29:16.909Z,18.21
2023-05-22T22:31:44.651Z,18.18
2023-05-22T22:34:12.129Z,18.04
2023-05-22T22:36:40.126Z,18.08
2023-05-22T22:39:07.714Z,17.98
2023-05-22T22:41:35.100Z,17.95
2023-05-22T22:44:02.523Z,17.85
2023-05-22T22:46:29.960Z,17.85
2023-05-22T22:48:58.885Z,17.80
2023-05-22T22:51:26.710Z,17.70
2023-05-22T22:53:54.208Z,17.60
2023-05-22T22:56:21.844Z,17.72
2023-05-22T22:58:49.259Z,17.74
2023-05-22T23:01:16.736Z,17.72
2023-05-22T23:03:44.203Z,17.73
2023-05-22T23:06:11.583Z,17.73
2023-05-22T23:08:38.959Z,17.77
2023-05-22T23:11:06.489Z,17.73
2023-05-22T23:13:33.952Z,17.72
2023-05-22T23:16:01.451Z,17.80
2023-05-22T23:18:28.895Z,17.78
2023-05-22T23:20:56.318Z,17.82
2023-05-22T23:23:23.660Z,17.74
2023-05-22T23:25:51.272Z,17.73
2023-05-22T23:28:18.707Z,17.78
2023-05-22T23:30:46.143Z,17.77
2023-05-22T23:33:13.548Z,17.74
2023-05-22T23:35:41.302Z,17.74
2023-05-22T23:38:08.865Z,17.76
2023-05-22T23:40:36.302Z,17.78
2023-05-22T23:43:03.656Z,17.77
2023-05-22T23:45:31.059Z,17.73
2023-05-22T23:47:58.482Z,17.70
2023-05-22T23:50:25.993Z,17.73
2023-05-22T23:52:54.183Z,17.69
2023-05-22T23:55:21.667Z,17.75
2023-05-22T23:57:49.082Z,17.73
